sensor_id;sensor_type;location;lat;lon;timestamp;temperature;humidity
86352;DHT22;77009;51.046;3.204;2024-03-25T00:01:26;3.60;99.90
86352;DHT22;77009;51.046;3.204;2024-03-25T00:03:51;3.20;99.90
86352;DHT22;77009;51.046;3.204;2024-03-25T00:06:17;3.40;99.90
86352;DHT22;77009;51.046;3.204;2024-03-25T00:08:42;3.50;99.90
86352;DHT22;77009;51.046;3.204;2024-03-25T00:11:08;3.80;99.90
86352;DHT22;77009;51.046;3.204;2024-03-25T00:13:34;3.80;99.90
86352;DHT22;77009;51.046;3.204;2024-03-25T00:15:59;3.30;99.90
86352;DHT22;77009;51.046;3.204;2024-03-25T00:18:25;2.80;99.90
86352;DHT22;77009;51.046;3.204;2024-03-25T00:20:51;2.50;99.90
86352;DHT22;77009;51.046;3.204;2024-03-25T00:23:17;3.00;99.90
86352;DHT22;77009;51.046;3.204;2024-03-25T00:25:43;3.20;99.90
86352;DHT22;77009;51.046;3.204;2024-03-25T00:28:08;3.00;99.90
86352;DHT22;77009;51.046;3.204;2024-03-25T00:30:34;3.00;99.90
86352;DHT22;77009;51.046;3.204;2024-03-25T00:33:00;3.40;99.90
86352;DHT22;77009;51.046;3.204;2024-03-25T00:35:26;3.60;99.90
86352;DHT22;77009;51.046;3.204;2024-03-25T00:37:51;3.10;99.90
86352;DHT22;77009;51.046;3.204;2024-03-25T00:40:17;2.90;99.90
86352;DHT22;77009;51.046;3.204;2024-03-25T00:42:43;2.70;99.90
86352;DHT22;77009;51.046;3.204;2024-03-25T00:45:09;3.20;99.90
86352;DHT22;77009;51.046;3.204;2024-03-25T00:47:34;3.30;99.90
86352;DHT22;77009;51.046;3.204;2024-03-25T00:50:00;3.00;99.90
86352;DHT22;77009;51.046;3.204;2024-03-25T00:52:26;2.80;99.90
86352;DHT22;77009;51.046;3.204;2024-03-25T00:54:51;2.80;99.90
86352;DHT22;77009;51.046;3.204;2024-03-25T00:57:17;2.50;99.90
86352;DHT22;77009;51.046;3.204;2024-03-25T00:59:43;3.10;99.90
86352;DHT22;77009;51.046;3.204;2024-03-25T01:02:09;3.40;99.90
86352;DHT22;77009;51.046;3.204;2024-03-25T01:04:35;3.50;99.90
86352;DHT22;77009;51.046;3.204;2024-03-25T01:07:00;3.50;99.90
86352;DHT22;77009;51.046;3.204;2024-03-25T01:09:26;3.20;99.90
86352;DHT22;77009;51.046;3.204;2024-03-25T01:11:52;3.00;99.90
86352;DHT22;77009;51.046;3.204;2024-03-25T01:14:17;3.20;99.90
86352;DHT22;77009;51.046;3.204;2024-03-25T01:16:43;3.60;99.90
86352;DHT22;77009;51.046;3.204;2024-03-25T01:19:09;3.50;99.90
86352;DHT22;77009;51.046;3.204;2024-03-25T01:21:34;3.30;99.90
86352;DHT22;77009;51.046;3.204;2024-03-25T01:24:00;2.80;99.90
86352;DHT22;77009;51.046;3.204;2024-03-25T01:26:26;2.60;99.90
86352;DHT22;77009;51.046;3.204;2024-03-25T01:28:52;3.20;99.90
86352;DHT22;77009;51.046;3.204;2024-03-25T01:31:18;3.20;99.90
86352;DHT22;77009;51.046;3.204;2024-03-25T01:33:45;2.80;99.90
86352;DHT22;77009;51.046;3.204;2024-03-25T01:36:11;2.70;99.90
86352;DHT22;77009;51.046;3.204;2024-03-25T01:38:42;2.70;99.90
86352;DHT22;77009;51.046;3.204;2024-03-25T01:41:12;2.60;99.90
86352;DHT22;77009;51.046;3.204;2024-03-25T01:43:38;3.10;99.90
86352;DHT22;77009;51.046;3.204;2024-03-25T01:46:04;3.10;99.90
86352;DHT22;77009;51.046;3.204;2024-03-25T01:48:34;2.60;99.90
86352;DHT22;77009;51.046;3.204;2024-03-25T01:51:00;2.20;99.90
86352;DHT22;77009;51.046;3.204;2024-03-25T01:53:29;2.40;99.90
86352;DHT22;77009;51.046;3.204;2024-03-25T01:55:56;2.90;99.90
86352;DHT22;77009;51.046;3.204;2024-03-25T01:58:23;3.20;99.90
86352;DHT22;77009;51.046;3.204;2024-03-25T02:00:50;3.30;99.90
86352;DHT22;77009;51.046;3.204;2024-03-25T02:03:17;3.50;99.90
86352;DHT22;77009;51.046;3.204;2024-03-25T02:05:43;3.20;99.90
86352;DHT22;77009;51.046;3.204;2024-03-25T02:08:09;3.10;99.90
86352;DHT22;77009;51.046;3.204;2024-03-25T02:10:37;2.90;99.90
86352;DHT22;77009;51.046;3.204;2024-03-25T02:13:03;3.00;99.90
86352;DHT22;77009;51.046;3.204;2024-03-25T02:15:29;3.40;99.90
86352;DHT22;77009;51.046;3.204;2024-03-25T02:17:55;3.10;99.90
86352;DHT22;77009;51.046;3.204;2024-03-25T02:20:20;2.70;99.90
86352;DHT22;77009;51.046;3.204;2024-03-25T02:22:46;2.90;99.90
86352;DHT22;77009;51.046;3.204;2024-03-25T02:25:14;2.80;99.90
86352;DHT22;77009;51.046;3.204;2024-03-25T02:27:41;2.70;99.90
86352;DHT22;77009;51.046;3.204;2024-03-25T02:30:09;3.10;99.90
86352;DHT22;77009;51.046;3.204;2024-03-25T02:32:36;2.90;99.90
86352;DHT22;77009;51.046;3.204;2024-03-25T02:35:04;2.50;99.90
86352;DHT22;77009;51.046;3.204;2024-03-25T02:37:30;2.30;99.90
86352;DHT22;77009;51.046;3.204;2024-03-25T02:39:58;2.20;99.90
86352;DHT22;77009;51.046;3.204;2024-03-25T02:42:28;2.20;99.90
86352;DHT22;77009;51.046;3.204;2024-03-25T02:44:57;2.20;99.90
86352;DHT22;77009;51.046;3.204;2024-03-25T02:47:24;2.20;99.90
86352;DHT22;77009;51.046;3.204;2024-03-25T02:49:50;2.20;99.90
86352;DHT22;77009;51.046;3.204;2024-03-25T02:52:17;2.30;99.90
86352;DHT22;77009;51.046;3.204;2024-03-25T02:54:42;2.60;99.90
86352;DHT22;77009;51.046;3.204;2024-03-25T02:57:08;2.50;99.90
86352;DHT22;77009;51.046;3.204;2024-03-25T02:59:34;2.90;99.90
86352;DHT22;77009;51.046;3.204;2024-03-25T03:01:59;3.30;99.90
86352;DHT22;77009;51.046;3.204;2024-03-25T03:04:25;3.10;99.90
86352;DHT22;77009;51.046;3.204;2024-03-25T03:06:51;2.90;99.90
86352;DHT22;77009;51.046;3.204;2024-03-25T03:09:16;2.60;99.90
86352;DHT22;77009;51.046;3.204;2024-03-25T03:11:42;2.40;99.90
86352;DHT22;77009;51.046;3.204;2024-03-25T03:14:08;2.30;99.90
86352;DHT22;77009;51.046;3.204;2024-03-25T03:16:33;2.30;99.90
86352;DHT22;77009;51.046;3.204;2024-03-25T03:18:59;2.20;99.90
86352;DHT22;77009;51.046;3.204;2024-03-25T03:21:24;2.20;99.90
86352;DHT22;77009;51.046;3.204;2024-03-25T03:23:50;2.50;99.90
86352;DHT22;77009;51.046;3.204;2024-03-25T03:26:16;3.10;99.90
86352;DHT22;77009;51.046;3.204;2024-03-25T03:28:41;3.10;99.90
86352;DHT22;77009;51.046;3.204;2024-03-25T03:31:07;2.90;99.90
86352;DHT22;77009;51.046;3.204;2024-03-25T03:33:33;2.80;99.90
86352;DHT22;77009;51.046;3.204;2024-03-25T03:35:59;2.80;99.90
86352;DHT22;77009;51.046;3.204;2024-03-25T03:38:24;3.20;99.90
86352;DHT22;77009;51.046;3.204;2024-03-25T03:41:02;3.50;99.90
86352;DHT22;77009;51.046;3.204;2024-03-25T03:43:27;3.40;99.90
86352;DHT22;77009;51.046;3.204;2024-03-25T03:45:53;3.60;99.90
86352;DHT22;77009;51.046;3.204;2024-03-25T03:48:19;3.20;99.90
86352;DHT22;77009;51.046;3.204;2024-03-25T03:50:45;2.90;99.90
86352;DHT22;77009;51.046;3.204;2024-03-25T03:53:11;2.90;99.90
86352;DHT22;77009;51.046;3.204;2024-03-25T03:55:37;2.70;99.90
86352;DHT22;77009;51.046;3.204;2024-03-25T03:58:03;2.90;99.90
86352;DHT22;77009;51.046;3.204;2024-03-25T04:00:29;2.70;99.90
86352;DHT22;77009;51.046;3.204;2024-03-25T04:02:54;2.70;99.90
86352;DHT22;77009;51.046;3.204;2024-03-25T04:05:20;2.90;99.90
86352;DHT22;77009;51.046;3.204;2024-03-25T04:07:46;3.20;99.90
86352;DHT22;77009;51.046;3.204;2024-03-25T04:10:11;3.10;99.90
86352;DHT22;77009;51.046;3.204;2024-03-25T04:12:38;3.10;99.90
86352;DHT22;77009;51.046;3.204;2024-03-25T04:15:04;3.20;99.90
86352;DHT22;77009;51.046;3.204;2024-03-25T04:17:30;3.10;99.90
86352;DHT22;77009;51.046;3.204;2024-03-25T04:19:59;3.00;99.90
86352;DHT22;77009;51.046;3.204;2024-03-25T04:22:26;2.70;99.90
86352;DHT22;77009;51.046;3.204;2024-03-25T04:24:51;2.20;99.90
86352;DHT22;77009;51.046;3.204;2024-03-25T04:27:17;2.30;99.90
86352;DHT22;77009;51.046;3.204;2024-03-25T04:29:46;2.50;99.90
86352;DHT22;77009;51.046;3.204;2024-03-25T04:32:12;2.80;99.90
86352;DHT22;77009;51.046;3.204;2024-03-25T04:34:37;2.70;99.90
86352;DHT22;77009;51.046;3.204;2024-03-25T04:37:03;2.70;99.90
86352;DHT22;77009;51.046;3.204;2024-03-25T04:39:30;2.70;99.90
86352;DHT22;77009;51.046;3.204;2024-03-25T04:41:56;2.70;99.90
86352;DHT22;77009;51.046;3.204;2024-03-25T04:44:22;2.80;99.90
86352;DHT22;77009;51.046;3.204;2024-03-25T04:46:47;2.80;99.90
86352;DHT22;77009;51.046;3.204;2024-03-25T04:49:13;2.70;99.90
86352;DHT22;77009;51.046;3.204;2024-03-25T04:51:39;3.20;99.90
86352;DHT22;77009;51.046;3.204;2024-03-25T04:54:05;3.60;99.90
86352;DHT22;77009;51.046;3.204;2024-03-25T04:56:30;3.70;99.90
86352;DHT22;77009;51.046;3.204;2024-03-25T04:58:57;3.60;99.90
86352;DHT22;77009;51.046;3.204;2024-03-25T05:01:27;3.80;99.90
86352;DHT22;77009;51.046;3.204;2024-03-25T05:03:53;3.50;99.90
86352;DHT22;77009;51.046;3.204;2024-03-25T05:06:19;3.40;99.90
86352;DHT22;77009;51.046;3.204;2024-03-25T05:08:44;3.30;99.90
86352;DHT22;77009;51.046;3.204;2024-03-25T05:11:10;3.00;99.90
86352;DHT22;77009;51.046;3.204;2024-03-25T05:13:36;2.90;99.90
86352;DHT22;77009;51.046;3.204;2024-03-25T05:16:01;2.90;99.90
86352;DHT22;77009;51.046;3.204;2024-03-25T05:18:27;3.00;99.90
86352;DHT22;77009;51.046;3.204;2024-03-25T05:20:52;2.90;99.90
86352;DHT22;77009;51.046;3.204;2024-03-25T05:23:18;2.90;99.90
86352;DHT22;77009;51.046;3.204;2024-03-25T05:25:44;2.90;99.90
86352;DHT22;77009;51.046;3.204;2024-03-25T05:28:10;2.90;99.90
86352;DHT22;77009;51.046;3.204;2024-03-25T05:30:35;2.90;99.90
86352;DHT22;77009;51.046;3.204;2024-03-25T05:33:01;3.20;99.90
86352;DHT22;77009;51.046;3.204;2024-03-25T05:35:27;3.20;99.90
86352;DHT22;77009;51.046;3.204;2024-03-25T05:37:53;3.20;99.90
86352;DHT22;77009;51.046;3.204;2024-03-25T05:40:19;3.50;99.90
86352;DHT22;77009;51.046;3.204;2024-03-25T05:42:45;3.60;99.90
86352;DHT22;77009;51.046;3.204;2024-03-25T05:45:11;3.40;99.90
86352;DHT22;77009;51.046;3.204;2024-03-25T05:47:36;3.50;99.90
86352;DHT22;77009;51.046;3.204;2024-03-25T05:50:02;3.40;99.90
86352;DHT22;77009;51.046;3.204;2024-03-25T05:52:31;3.50;99.90
86352;DHT22;77009;51.046;3.204;2024-03-25T05:54:56;3.50;99.90
86352;DHT22;77009;51.046;3.204;2024-03-25T05:57:22;3.50;99.90
86352;DHT22;77009;51.046;3.204;2024-03-25T05:59:48;3.50;99.90
86352;DHT22;77009;51.046;3.204;2024-03-25T06:02:14;3.60;99.90
86352;DHT22;77009;51.046;3.204;2024-03-25T06:04:39;3.60;99.90
86352;DHT22;77009;51.046;3.204;2024-03-25T06:07:05;3.60;99.90
86352;DHT22;77009;51.046;3.204;2024-03-25T06:09:30;3.70;99.90
86352;DHT22;77009;51.046;3.204;2024-03-25T06:11:56;3.90;99.90
86352;DHT22;77009;51.046;3.204;2024-03-25T06:14:22;3.80;99.90
86352;DHT22;77009;51.046;3.204;2024-03-25T06:16:47;3.80;99.90
86352;DHT22;77009;51.046;3.204;2024-03-25T06:19:13;3.90;99.90
86352;DHT22;77009;51.046;3.204;2024-03-25T06:21:38;4.00;99.90
86352;DHT22;77009;51.046;3.204;2024-03-25T06:24:04;4.10;99.90
86352;DHT22;77009;51.046;3.204;2024-03-25T06:26:30;4.20;99.90
86352;DHT22;77009;51.046;3.204;2024-03-25T06:28:56;4.20;99.90
86352;DHT22;77009;51.046;3.204;2024-03-25T06:31:21;4.20;99.90
86352;DHT22;77009;51.046;3.204;2024-03-25T06:34:05;4.20;99.90
86352;DHT22;77009;51.046;3.204;2024-03-25T06:36:43;4.20;99.90
86352;DHT22;77009;51.046;3.204;2024-03-25T06:39:09;4.30;99.90
86352;DHT22;77009;51.046;3.204;2024-03-25T06:41:35;4.40;99.90
86352;DHT22;77009;51.046;3.204;2024-03-25T06:44:00;4.50;99.90
86352;DHT22;77009;51.046;3.204;2024-03-25T06:46:26;4.40;99.90
86352;DHT22;77009;51.046;3.204;2024-03-25T06:48:51;4.60;99.90
86352;DHT22;77009;51.046;3.204;2024-03-25T06:51:17;4.70;99.90
86352;DHT22;77009;51.046;3.204;2024-03-25T06:53:43;4.80;99.90
86352;DHT22;77009;51.046;3.204;2024-03-25T06:56:09;4.80;99.90
86352;DHT22;77009;51.046;3.204;2024-03-25T06:58:35;4.90;99.90
86352;DHT22;77009;51.046;3.204;2024-03-25T07:01:05;4.90;99.90
86352;DHT22;77009;51.046;3.204;2024-03-25T07:03:32;5.00;99.90
86352;DHT22;77009;51.046;3.204;2024-03-25T07:05:58;5.10;99.90
86352;DHT22;77009;51.046;3.204;2024-03-25T07:08:26;5.20;99.90
86352;DHT22;77009;51.046;3.204;2024-03-25T07:10:52;5.00;99.90
86352;DHT22;77009;51.046;3.204;2024-03-25T07:13:18;5.00;99.90
86352;DHT22;77009;51.046;3.204;2024-03-25T07:15:44;5.40;99.90
86352;DHT22;77009;51.046;3.204;2024-03-25T07:18:10;5.30;99.90
86352;DHT22;77009;51.046;3.204;2024-03-25T07:20:41;5.30;99.90
86352;DHT22;77009;51.046;3.204;2024-03-25T07:23:07;5.60;99.90
86352;DHT22;77009;51.046;3.204;2024-03-25T07:25:33;5.60;99.90
86352;DHT22;77009;51.046;3.204;2024-03-25T07:27:59;5.80;99.90
86352;DHT22;77009;51.046;3.204;2024-03-25T07:30:24;5.90;99.90
86352;DHT22;77009;51.046;3.204;2024-03-25T07:32:54;5.80;99.90
86352;DHT22;77009;51.046;3.204;2024-03-25T07:35:20;6.00;99.90
86352;DHT22;77009;51.046;3.204;2024-03-25T07:37:45;5.90;99.90
86352;DHT22;77009;51.046;3.204;2024-03-25T07:40:11;6.10;99.90
86352;DHT22;77009;51.046;3.204;2024-03-25T07:42:37;6.30;99.90
86352;DHT22;77009;51.046;3.204;2024-03-25T07:45:03;6.20;99.90
86352;DHT22;77009;51.046;3.204;2024-03-25T07:47:30;6.30;99.90
86352;DHT22;77009;51.046;3.204;2024-03-25T07:49:56;6.30;99.90
86352;DHT22;77009;51.046;3.204;2024-03-25T07:52:21;6.50;99.90
86352;DHT22;77009;51.046;3.204;2024-03-25T07:54:47;6.60;99.90
86352;DHT22;77009;51.046;3.204;2024-03-25T07:57:13;6.50;99.90
86352;DHT22;77009;51.046;3.204;2024-03-25T07:59:39;6.60;99.90
86352;DHT22;77009;51.046;3.204;2024-03-25T08:02:04;6.60;99.90
86352;DHT22;77009;51.046;3.204;2024-03-25T08:04:30;6.50;99.90
86352;DHT22;77009;51.046;3.204;2024-03-25T08:06:56;6.70;99.90
86352;DHT22;77009;51.046;3.204;2024-03-25T08:09:22;6.80;99.90
86352;DHT22;77009;51.046;3.204;2024-03-25T08:11:47;6.60;99.90
86352;DHT22;77009;51.046;3.204;2024-03-25T08:14:13;6.40;99.90
86352;DHT22;77009;51.046;3.204;2024-03-25T08:16:39;6.70;99.90
86352;DHT22;77009;51.046;3.204;2024-03-25T08:19:05;6.80;99.90
86352;DHT22;77009;51.046;3.204;2024-03-25T08:21:31;6.80;99.90
86352;DHT22;77009;51.046;3.204;2024-03-25T08:23:57;6.90;99.90
86352;DHT22;77009;51.046;3.204;2024-03-25T08:26:22;6.90;99.90
86352;DHT22;77009;51.046;3.204;2024-03-25T08:28:48;6.90;99.90
86352;DHT22;77009;51.046;3.204;2024-03-25T08:31:16;6.90;99.90
86352;DHT22;77009;51.046;3.204;2024-03-25T08:33:42;6.80;99.90
86352;DHT22;77009;51.046;3.204;2024-03-25T08:36:07;6.80;99.90
86352;DHT22;77009;51.046;3.204;2024-03-25T08:38:33;6.60;99.90
86352;DHT22;77009;51.046;3.204;2024-03-25T08:40:59;6.90;99.90
86352;DHT22;77009;51.046;3.204;2024-03-25T08:43:25;7.10;99.90
86352;DHT22;77009;51.046;3.204;2024-03-25T08:45:50;7.00;99.90
86352;DHT22;77009;51.046;3.204;2024-03-25T08:48:16;7.20;99.90
86352;DHT22;77009;51.046;3.204;2024-03-25T08:50:42;7.30;99.90
86352;DHT22;77009;51.046;3.204;2024-03-25T08:53:08;7.30;99.90
86352;DHT22;77009;51.046;3.204;2024-03-25T08:55:34;7.10;99.90
86352;DHT22;77009;51.046;3.204;2024-03-25T08:58:00;6.90;99.90
86352;DHT22;77009;51.046;3.204;2024-03-25T09:00:26;7.20;99.90
86352;DHT22;77009;51.046;3.204;2024-03-25T09:02:55;7.20;99.90
86352;DHT22;77009;51.046;3.204;2024-03-25T09:05:21;7.10;99.90
86352;DHT22;77009;51.046;3.204;2024-03-25T09:07:51;7.20;99.90
86352;DHT22;77009;51.046;3.204;2024-03-25T09:10:17;7.00;99.90
86352;DHT22;77009;51.046;3.204;2024-03-25T09:13:02;6.90;99.90
86352;DHT22;77009;51.046;3.204;2024-03-25T09:15:28;7.00;99.90
86352;DHT22;77009;51.046;3.204;2024-03-25T09:17:54;7.00;99.90
86352;DHT22;77009;51.046;3.204;2024-03-25T09:20:20;7.20;99.90
86352;DHT22;77009;51.046;3.204;2024-03-25T09:22:46;7.20;99.90
86352;DHT22;77009;51.046;3.204;2024-03-25T09:25:14;7.10;99.90
86352;DHT22;77009;51.046;3.204;2024-03-25T09:27:40;7.10;99.90
86352;DHT22;77009;51.046;3.204;2024-03-25T09:30:06;6.90;99.90
86352;DHT22;77009;51.046;3.204;2024-03-25T09:32:33;7.00;99.90
86352;DHT22;77009;51.046;3.204;2024-03-25T09:34:58;7.20;99.90
86352;DHT22;77009;51.046;3.204;2024-03-25T09:37:24;7.20;99.90
86352;DHT22;77009;51.046;3.204;2024-03-25T09:39:50;7.30;99.90
86352;DHT22;77009;51.046;3.204;2024-03-25T09:42:23;7.40;99.90
86352;DHT22;77009;51.046;3.204;2024-03-25T09:44:52;7.80;99.90
86352;DHT22;77009;51.046;3.204;2024-03-25T09:47:18;8.10;99.90
86352;DHT22;77009;51.046;3.204;2024-03-25T09:49:45;8.10;99.90
86352;DHT22;77009;51.046;3.204;2024-03-25T09:52:12;8.10;99.90
86352;DHT22;77009;51.046;3.204;2024-03-25T09:54:37;8.40;99.90
86352;DHT22;77009;51.046;3.204;2024-03-25T09:57:03;8.70;99.90
86352;DHT22;77009;51.046;3.204;2024-03-25T09:59:30;8.60;99.90
86352;DHT22;77009;51.046;3.204;2024-03-25T10:01:56;8.30;99.90
86352;DHT22;77009;51.046;3.204;2024-03-25T10:04:23;8.00;99.90
86352;DHT22;77009;51.046;3.204;2024-03-25T10:06:49;8.10;99.90
86352;DHT22;77009;51.046;3.204;2024-03-25T10:09:22;8.00;99.90
86352;DHT22;77009;51.046;3.204;2024-03-25T10:11:51;8.20;99.90
86352;DHT22;77009;51.046;3.204;2024-03-25T10:14:17;8.30;99.90
86352;DHT22;77009;51.046;3.204;2024-03-25T10:16:43;8.70;99.90
86352;DHT22;77009;51.046;3.204;2024-03-25T10:19:09;8.50;99.90
86352;DHT22;77009;51.046;3.204;2024-03-25T10:21:35;8.50;99.90
86352;DHT22;77009;51.046;3.204;2024-03-25T10:24:01;8.60;99.90
86352;DHT22;77009;51.046;3.204;2024-03-25T10:26:31;8.60;99.90
86352;DHT22;77009;51.046;3.204;2024-03-25T10:29:04;9.00;99.90
86352;DHT22;77009;51.046;3.204;2024-03-25T10:31:32;9.00;99.90
86352;DHT22;77009;51.046;3.204;2024-03-25T10:33:58;9.10;99.90
86352;DHT22;77009;51.046;3.204;2024-03-25T10:36:24;9.00;99.90
86352;DHT22;77009;51.046;3.204;2024-03-25T10:38:57;8.90;99.90
86352;DHT22;77009;51.046;3.204;2024-03-25T10:41:28;9.00;99.90
86352;DHT22;77009;51.046;3.204;2024-03-25T10:43:55;8.70;99.90
86352;DHT22;77009;51.046;3.204;2024-03-25T10:46:24;8.80;99.90
86352;DHT22;77009;51.046;3.204;2024-03-25T10:49:21;9.00;99.90
86352;DHT22;77009;51.046;3.204;2024-03-25T10:51:51;8.70;99.90
86352;DHT22;77009;51.046;3.204;2024-03-25T10:54:17;9.10;99.90
86352;DHT22;77009;51.046;3.204;2024-03-25T10:56:44;9.40;99.90
86352;DHT22;77009;51.046;3.204;2024-03-25T10:59:11;9.40;99.90
86352;DHT22;77009;51.046;3.204;2024-03-25T11:01:38;9.80;99.90
86352;DHT22;77009;51.046;3.204;2024-03-25T11:04:04;10.30;99.90
86352;DHT22;77009;51.046;3.204;2024-03-25T11:06:32;11.70;99.90
86352;DHT22;77009;51.046;3.204;2024-03-25T11:08:58;12.20;94.80
86352;DHT22;77009;51.046;3.204;2024-03-25T11:11:33;12.00;95.00
86352;DHT22;77009;51.046;3.204;2024-03-25T11:13:59;12.30;92.60
86352;DHT22;77009;51.046;3.204;2024-03-25T11:16:31;12.10;93.90
86352;DHT22;77009;51.046;3.204;2024-03-25T11:19:03;12.50;93.60
86352;DHT22;77009;51.046;3.204;2024-03-25T11:21:31;12.80;92.50
86352;DHT22;77009;51.046;3.204;2024-03-25T11:24:06;12.00;92.20
86352;DHT22;77009;51.046;3.204;2024-03-25T11:26:32;13.00;91.60
86352;DHT22;77009;51.046;3.204;2024-03-25T11:29:00;13.20;86.50
86352;DHT22;77009;51.046;3.204;2024-03-25T11:31:27;11.90;88.10
86352;DHT22;77009;51.046;3.204;2024-03-25T11:33:53;12.00;91.00
86352;DHT22;77009;51.046;3.204;2024-03-25T11:36:20;12.40;91.30
86352;DHT22;77009;51.046;3.204;2024-03-25T11:39:00;12.10;90.20
86352;DHT22;77009;51.046;3.204;2024-03-25T11:41:30;12.00;90.40
86352;DHT22;77009;51.046;3.204;2024-03-25T11:43:55;12.40;86.20
86352;DHT22;77009;51.046;3.204;2024-03-25T11:46:25;13.10;87.50
86352;DHT22;77009;51.046;3.204;2024-03-25T11:48:51;14.00;77.50
86352;DHT22;77009;51.046;3.204;2024-03-25T11:51:17;13.60;79.50
86352;DHT22;77009;51.046;3.204;2024-03-25T11:53:43;13.10;78.90
86352;DHT22;77009;51.046;3.204;2024-03-25T11:56:10;13.30;81.50
86352;DHT22;77009;51.046;3.204;2024-03-25T11:58:36;13.70;78.70
86352;DHT22;77009;51.046;3.204;2024-03-25T12:01:02;13.80;80.30
86352;DHT22;77009;51.046;3.204;2024-03-25T12:03:28;14.30;80.00
86352;DHT22;77009;51.046;3.204;2024-03-25T12:05:55;14.90;75.20
86352;DHT22;77009;51.046;3.204;2024-03-25T12:08:21;15.00;74.40
86352;DHT22;77009;51.046;3.204;2024-03-25T12:10:51;15.00;72.20
86352;DHT22;77009;51.046;3.204;2024-03-25T12:13:35;14.30;69.90
86352;DHT22;77009;51.046;3.204;2024-03-25T12:16:01;15.20;71.40
86352;DHT22;77009;51.046;3.204;2024-03-25T12:18:29;15.70;70.30
86352;DHT22;77009;51.046;3.204;2024-03-25T12:20:57;14.30;74.50
86352;DHT22;77009;51.046;3.204;2024-03-25T12:23:22;14.10;73.10
86352;DHT22;77009;51.046;3.204;2024-03-25T12:25:51;13.20;75.60
86352;DHT22;77009;51.046;3.204;2024-03-25T12:28:17;12.90;74.30
86352;DHT22;77009;51.046;3.204;2024-03-25T12:30:51;13.50;72.20
86352;DHT22;77009;51.046;3.204;2024-03-25T12:33:17;12.80;77.40
86352;DHT22;77009;51.046;3.204;2024-03-25T12:35:46;12.50;73.30
86352;DHT22;77009;51.046;3.204;2024-03-25T12:38:32;12.90;74.00
86352;DHT22;77009;51.046;3.204;2024-03-25T12:41:08;12.50;73.40
86352;DHT22;77009;51.046;3.204;2024-03-25T12:43:36;12.10;76.40
86352;DHT22;77009;51.046;3.204;2024-03-25T12:46:03;13.40;73.10
86352;DHT22;77009;51.046;3.204;2024-03-25T12:48:31;14.50;69.90
86352;DHT22;77009;51.046;3.204;2024-03-25T12:50:57;14.90;68.90
86352;DHT22;77009;51.046;3.204;2024-03-25T12:53:22;15.30;64.70
86352;DHT22;77009;51.046;3.204;2024-03-25T12:55:48;15.00;66.30
86352;DHT22;77009;51.046;3.204;2024-03-25T12:58:14;14.90;66.10
86352;DHT22;77009;51.046;3.204;2024-03-25T13:00:40;14.80;66.80
86352;DHT22;77009;51.046;3.204;2024-03-25T13:03:07;14.10;70.30
86352;DHT22;77009;51.046;3.204;2024-03-25T13:05:34;13.70;69.80
86352;DHT22;77009;51.046;3.204;2024-03-25T13:08:00;14.40;67.80
86352;DHT22;77009;51.046;3.204;2024-03-25T13:10:26;14.70;63.80
86352;DHT22;77009;51.046;3.204;2024-03-25T13:12:52;15.60;61.20
86352;DHT22;77009;51.046;3.204;2024-03-25T13:15:18;16.00;60.70
86352;DHT22;77009;51.046;3.204;2024-03-25T13:17:43;16.30;57.20
86352;DHT22;77009;51.046;3.204;2024-03-25T13:20:09;14.80;62.70
86352;DHT22;77009;51.046;3.204;2024-03-25T13:22:35;15.30;61.40
86352;DHT22;77009;51.046;3.204;2024-03-25T13:25:01;15.80;59.90
86352;DHT22;77009;51.046;3.204;2024-03-25T13:27:26;16.00;59.00
86352;DHT22;77009;51.046;3.204;2024-03-25T13:29:52;15.50;59.80
86352;DHT22;77009;51.046;3.204;2024-03-25T13:32:22;15.60;58.20
86352;DHT22;77009;51.046;3.204;2024-03-25T13:34:48;15.70;57.00
86352;DHT22;77009;51.046;3.204;2024-03-25T13:37:14;15.70;63.90
86352;DHT22;77009;51.046;3.204;2024-03-25T13:39:39;15.00;59.80
86352;DHT22;77009;51.046;3.204;2024-03-25T13:42:05;14.80;58.60
86352;DHT22;77009;51.046;3.204;2024-03-25T13:44:31;14.30;62.50
86352;DHT22;77009;51.046;3.204;2024-03-25T13:46:57;15.20;58.40
86352;DHT22;77009;51.046;3.204;2024-03-25T13:49:23;15.00;58.60
86352;DHT22;77009;51.046;3.204;2024-03-25T13:51:58;15.40;59.10
86352;DHT22;77009;51.046;3.204;2024-03-25T13:54:28;16.00;54.90
86352;DHT22;77009;51.046;3.204;2024-03-25T13:56:55;15.10;58.20
86352;DHT22;77009;51.046;3.204;2024-03-25T13:59:21;14.90;59.20
86352;DHT22;77009;51.046;3.204;2024-03-25T14:01:46;14.70;58.10
86352;DHT22;77009;51.046;3.204;2024-03-25T14:04:12;15.30;60.00
86352;DHT22;77009;51.046;3.204;2024-03-25T14:06:38;15.80;55.20
86352;DHT22;77009;51.046;3.204;2024-03-25T14:09:04;15.50;59.90
86352;DHT22;77009;51.046;3.204;2024-03-25T14:11:35;15.10;55.40
86352;DHT22;77009;51.046;3.204;2024-03-25T14:14:01;15.20;57.30
86352;DHT22;77009;51.046;3.204;2024-03-25T14:16:30;15.50;58.70
86352;DHT22;77009;51.046;3.204;2024-03-25T14:18:56;15.30;60.20
86352;DHT22;77009;51.046;3.204;2024-03-25T14:21:21;14.80;60.60
86352;DHT22;77009;51.046;3.204;2024-03-25T14:23:47;14.70;59.50
86352;DHT22;77009;51.046;3.204;2024-03-25T14:26:13;14.30;60.00
86352;DHT22;77009;51.046;3.204;2024-03-25T14:28:42;13.80;61.40
86352;DHT22;77009;51.046;3.204;2024-03-25T14:31:07;13.50;64.40
86352;DHT22;77009;51.046;3.204;2024-03-25T14:33:33;13.80;62.70
86352;DHT22;77009;51.046;3.204;2024-03-25T14:35:59;13.80;62.90
86352;DHT22;77009;51.046;3.204;2024-03-25T14:38:25;13.90;61.60
86352;DHT22;77009;51.046;3.204;2024-03-25T14:40:51;13.60;63.10
86352;DHT22;77009;51.046;3.204;2024-03-25T14:43:18;13.80;62.10
86352;DHT22;77009;51.046;3.204;2024-03-25T14:45:45;13.50;61.00
86352;DHT22;77009;51.046;3.204;2024-03-25T14:48:11;13.20;63.90
86352;DHT22;77009;51.046;3.204;2024-03-25T14:50:37;13.20;62.60
86352;DHT22;77009;51.046;3.204;2024-03-25T14:53:03;13.40;65.60
86352;DHT22;77009;51.046;3.204;2024-03-25T14:55:30;13.70;62.40
86352;DHT22;77009;51.046;3.204;2024-03-25T14:57:56;13.60;62.80
86352;DHT22;77009;51.046;3.204;2024-03-25T15:00:22;13.80;63.10
86352;DHT22;77009;51.046;3.204;2024-03-25T15:02:53;14.00;63.20
86352;DHT22;77009;51.046;3.204;2024-03-25T15:05:19;13.90;60.90
86352;DHT22;77009;51.046;3.204;2024-03-25T15:07:45;13.60;60.70
86352;DHT22;77009;51.046;3.204;2024-03-25T15:10:11;13.50;62.20
86352;DHT22;77009;51.046;3.204;2024-03-25T15:12:38;13.50;60.10
86352;DHT22;77009;51.046;3.204;2024-03-25T15:15:04;13.30;61.50
86352;DHT22;77009;51.046;3.204;2024-03-25T15:17:32;13.40;59.40
86352;DHT22;77009;51.046;3.204;2024-03-25T15:19:58;13.30;59.40
86352;DHT22;77009;51.046;3.204;2024-03-25T15:22:24;13.20;61.00
86352;DHT22;77009;51.046;3.204;2024-03-25T15:24:50;13.50;60.80
86352;DHT22;77009;51.046;3.204;2024-03-25T15:27:16;13.40;61.70
86352;DHT22;77009;51.046;3.204;2024-03-25T15:29:41;13.20;59.40
86352;DHT22;77009;51.046;3.204;2024-03-25T15:32:07;13.30;60.40
86352;DHT22;77009;51.046;3.204;2024-03-25T15:34:33;13.60;61.20
86352;DHT22;77009;51.046;3.204;2024-03-25T15:36:58;13.50;59.40
86352;DHT22;77009;51.046;3.204;2024-03-25T15:39:24;13.40;61.90